Time;durP1;ratioP1;P1;durP2;ratioP2;P2;SDS_P1;SDS_P2;PMS_P1;PMS_P2;Temp;Humidity;BMP_temperature;BMP_pressure;BME280_temperature;BME280_humidity;BME280_pressure;Samples;Min_cycle;Max_cycle;Signal;HPM_P1;HPM_P2
2021/12/18 00:00:45;;;;;;;34.90;15.05;;;;;;;7.59;83.38;103650.31;5071955;28;20049;-70
2021/12/18 00:03:11;;;;;;;43.63;16.02;;;;;;;7.63;83.57;103641.34;5057142;28;20119;-69
2021/12/18 00:05:38;;;;;;;39.85;15.27;;;;;;;7.40;83.83;103644.91;5073512;28;20131;-69
2021/12/18 00:08:05;;;;;;;35.95;15.15;;;;;;;7.38;83.98;103642.34;5070279;28;20037;-69
2021/12/18 00:10:33;;;;;;;35.95;14.38;;;;;;;7.37;84.22;103642.41;5070242;28;20043;-69
2021/12/18 00:13:01;;;;;;;42.40;16.42;;;;;;;7.26;84.59;103643.72;5070961;28;20056;-69
2021/12/18 00:15:29;;;;;;;35.85;14.85;;;;;;;7.28;84.77;103646.28;5071373;28;20052;-69
2021/12/18 00:17:56;;;;;;;35.95;14.52;;;;;;;7.39;84.75;103641.44;5071312;28;20066;-70
2021/12/18 00:20:25;;;;;;;34.33;14.05;;;;;;;7.48;84.57;103642.84;5071412;28;20040;-70
2021/12/18 00:22:53;;;;;;;42.38;16.75;;;;;;;7.43;84.64;103639.53;5070894;28;20409;-69
2021/12/18 00:25:20;;;;;;;43.55;15.73;;;;;;;7.47;84.48;103639.31;5069893;28;20098;-70
2021/12/18 00:27:46;;;;;;;38.67;14.88;;;;;;;7.55;84.46;103646.06;5069591;28;20041;-69
2021/12/18 00:30:15;;;;;;;39.00;15.35;;;;;;;7.59;84.48;103650.31;5071326;28;20047;-70
2021/12/18 00:32:42;;;;;;;39.42;16.33;;;;;;;7.58;84.35;103645.94;5055505;28;20045;-69
2021/12/18 00:35:09;;;;;;;40.22;15.52;;;;;;;7.57;84.24;103646.91;5053610;28;20507;-70
2021/12/18 00:37:35;;;;;;;43.80;15.13;;;;;;;7.67;83.55;103641.13;5070407;28;20092;-69
2021/12/18 00:40:08;;;;;;;38.58;15.63;;;;;;;7.75;83.47;103646.13;5071309;28;20044;-69
2021/12/18 00:45:08;;;;;;;38.05;14.50;;;;;;;7.70;83.48;103645.44;5070231;28;20056;-70
2021/12/18 00:47:36;;;;;;;39.83;14.45;;;;;;;7.70;83.53;103640.16;5065449;28;20033;-70
2021/12/18 00:50:05;;;;;;;39.78;14.48;;;;;;;7.67;83.77;103643.78;5075311;28;20717;-69
2021/12/18 00:52:32;;;;;;;40.75;15.63;;;;;;;7.56;84.58;103634.59;5065959;28;20135;-70
2021/12/18 00:54:59;;;;;;;36.70;14.65;;;;;;;7.53;84.32;103640.88;5073608;28;20052;-69
2021/12/18 00:57:26;;;;;;;43.47;15.63;;;;;;;7.58;84.07;103633.59;5075238;28;20119;-69
2021/12/18 00:59:58;;;;;;;43.33;16.33;;;;;;;7.45;84.06;103627.97;5073957;28;20044;-69
2021/12/18 01:02:26;;;;;;;42.13;16.30;;;;;;;7.56;84.20;103640.72;5041311;28;20071;-69
2021/12/18 01:04:54;;;;;;;48.17;16.35;;;;;;;7.54;84.59;103639.09;5066521;28;20051;-69
2021/12/18 01:07:21;;;;;;;46.22;17.15;;;;;;;7.56;84.45;103639.88;5065150;28;20067;-70
2021/12/18 01:12:36;;;;;;;46.78;17.08;;;;;;;7.63;84.62;103641.34;5088308;27;20390;-70
2021/12/18 01:15:15;;;;;;;44.40;17.13;;;;;;;7.69;83.90;103643.72;5088624;28;20119;-70
2021/12/18 01:23:17;;;;;;;53.50;18.27;;;;;;;7.69;83.84;103644.59;5077538;28;20052;-69
2021/12/18 01:25:43;;;;;;;55.50;19.60;;;;;;;7.65;83.75;103644.78;5076961;28;20463;-70
2021/12/18 01:28:10;;;;;;;54.05;18.17;;;;;;;7.53;83.97;103640.00;5084212;28;20044;-69
2021/12/18 01:30:37;;;;;;;61.53;19.98;;;;;;;7.65;84.51;103642.13;5087092;28;20040;-69
2021/12/18 01:33:04;;;;;;;57.03;19.80;;;;;;;7.54;84.74;103647.00;5087772;28;20055;-70
2021/12/18 01:35:30;;;;;;;61.38;19.85;;;;;;;7.59;84.38;103642.41;5087518;28;20052;-69
2021/12/18 01:37:58;;;;;;;56.83;20.67;;;;;;;7.65;84.71;103637.69;5087379;28;20496;-70
2021/12/18 01:40:26;;;;;;;54.03;20.13;;;;;;;7.63;83.75;103636.06;5053737;28;20048;-68
2021/12/18 01:53:57;;;;;;;57.75;20.10;;;;;;;7.61;84.31;103633.47;5116657;27;20555;-70
2021/12/18 01:56:26;;;;;;;53.05;19.00;;;;;;;7.49;84.86;103620.78;5074935;28;20036;-70
2021/12/18 01:58:54;;;;;;;54.35;19.23;;;;;;;7.44;85.42;103626.25;5075016;28;20056;-70
2021/12/18 02:01:22;;;;;;;53.50;18.50;;;;;;;7.62;84.53;103632.56;5091072;28;20131;-70
2021/12/18 02:03:49;;;;;;;52.90;18.95;;;;;;;7.66;84.79;103635.94;5107422;28;20047;-69
2021/12/18 02:06:16;;;;;;;51.88;19.50;;;;;;;7.47;85.47;103630.53;5074346;28;20062;-69
2021/12/18 02:08:44;;;;;;;50.25;19.35;;;;;;;7.41;85.95;103631.66;5083560;28;20042;-69
2021/12/18 02:11:23;;;;;;;55.30;19.48;;;;;;;7.50;85.92;103631.28;5068452;28;20040;-69
2021/12/18 02:20:10;;;;;;;51.25;18.77;;;;;;;7.63;85.01;103636.06;5109055;28;20071;-70
2021/12/18 02:22:17;;;;;;;53.22;18.60;;;;;;;7.42;85.80;103628.09;5109220;28;20412;-69
2021/12/18 02:24:44;;;;;;;44.63;18.15;;;;;;;7.48;85.45;103629.63;5107823;28;20035;-69
2021/12/18 02:27:11;;;;;;;46.22;18.00;;;;;;;7.48;85.68;103627.00;5091324;28;20044;-69
2021/12/18 02:29:40;;;;;;;43.45;17.40;;;;;;;7.47;85.34;103625.25;5108099;28;20043;-69
2021/12/18 02:32:08;;;;;;;53.63;18.98;;;;;;;7.44;86.11;103626.25;5109312;28;20048;-70
2021/12/18 02:34:38;;;;;;;48.83;18.08;;;;;;;7.40;85.61;103623.78;5107197;28;20040;-69
2021/12/18 02:37:08;;;;;;;42.47;16.67;;;;;;;7.55;85.91;103625.81;5090901;28;20086;-69
2021/12/18 02:39:57;;;;;;;46.80;17.63;;;;;;;7.53;85.91;103630.31;5108227;28;20104;-69
2021/12/18 02:42:22;;;;;;;51.63;17.65;;;;;;;7.54;85.82;103621.44;5108677;28;20040;-69
2021/12/18 02:44:50;;;;;;;48.25;18.85;;;;;;;7.55;85.17;103615.25;5107408;28;20058;-69
2021/12/18 02:47:16;;;;;;;44.55;17.65;;;;;;;7.50;85.57;103618.06;5107235;28;20356;-69
2021/12/18 02:49:47;;;;;;;43.72;18.02;;;;;;;7.50;85.39;103610.16;5108070;28;20075;-69
2021/12/18 02:52:14;;;;;;;45.50;18.73;;;;;;;7.39;86.02;103607.09;5108625;28;20122;-68
2021/12/18 02:54:42;;;;;;;45.30;18.20;;;;;;;7.36;86.45;103607.22;5108555;28;20447;-69
2021/12/18 02:57:09;;;;;;;47.03;18.58;;;;;;;7.59;86.00;103608.06;5108466;28;20048;-70
2021/12/18 02:59:48;;;;;;;45.70;17.65;;;;;;;7.52;85.76;103609.22;5109207;28;20036;-71
2021/12/18 03:02:16;;;;;;;45.42;18.60;;;;;;;7.59;86.10;103603.63;5108484;28;20096;-68
2021/12/18 03:04:46;;;;;;;47.92;18.30;;;;;;;7.57;85.88;103604.63;5107263;28;20032;-68
2021/12/18 03:07:16;;;;;;;40.78;17.75;;;;;;;7.58;85.95;103604.53;5105811;28;20052;-68
2021/12/18 03:23:44;;;;;;;42.10;17.55;;;;;;;7.43;86.01;103579.63;5092767;28;20111;-70
2021/12/18 03:26:13;;;;;;;46.45;17.95;;;;;;;7.65;86.06;103576.09;5100911;28;20074;-69
2021/12/18 03:28:41;;;;;;;46.28;17.20;;;;;;;7.58;85.43;103578.13;5092901;28;20036;-70
2021/12/18 03:31:08;;;;;;;49.50;18.33;;;;;;;7.68;85.59;103583.88;5075984;28;20040;-70
2021/12/18 03:33:35;;;;;;;43.35;18.50;;;;;;;7.56;85.36;103574.69;5091220;28;20040;-69
2021/12/18 03:36:02;;;;;;;44.80;16.85;;;;;;;7.61;85.43;103574.50;5094138;28;20032;-69
2021/12/18 03:38:29;;;;;;;44.50;15.75;;;;;;;7.62;85.65;103570.91;5076351;28;20089;-70
2021/12/18 03:40:56;;;;;;;44.13;16.85;;;;;;;7.65;85.65;103573.44;5094488;28;20046;-69
2021/12/18 03:43:23;;;;;;;45.60;17.73;;;;;;;7.55;86.00;103569.47;5092691;28;20044;-69
2021/12/18 03:45:49;;;;;;;44.72;16.27;;;;;;;7.63;85.51;103568.22;5093914;28;20044;-70
2021/12/18 03:48:16;;;;;;;43.85;16.38;;;;;;;7.61;85.45;103574.50;5094304;28;20044;-69
2021/12/18 03:50:46;;;;;;;45.10;17.20;;;;;;;7.64;85.56;103569.94;5094567;28;20048;-69
2021/12/18 03:53:13;;;;;;;45.05;17.90;;;;;;;7.77;85.51;103577.34;5092480;28;20042;-70
2021/12/18 03:55:40;;;;;;;42.08;17.08;;;;;;;7.73;85.44;103589.84;5094044;28;20040;-69
2021/12/18 03:58:07;;;;;;;45.03;17.77;;;;;;;7.63;85.57;103591.16;5092878;28;20092;-69
2021/12/18 04:00:35;;;;;;;43.63;17.23;;;;;;;7.57;86.08;103588.78;5093892;28;20043;-69
2021/12/18 04:03:02;;;;;;;47.05;17.27;;;;;;;7.61;85.99;103593.00;5093824;28;20462;-70
2021/12/18 04:05:29;;;;;;;43.75;16.67;;;;;;;7.56;86.19;103598.47;5092482;28;20378;-70
2021/12/18 04:08:08;;;;;;;44.55;16.80;;;;;;;7.64;85.58;103590.19;5092221;28;20044;-70
2021/12/18 04:10:37;;;;;;;43.58;16.60;;;;;;;7.64;85.70;103592.84;5087209;28;20090;-69
2021/12/18 04:13:05;;;;;;;38.92;16.65;;;;;;;7.55;86.38;103590.59;5093196;28;20040;-70
2021/12/18 04:15:32;;;;;;;45.88;17.77;;;;;;;7.58;86.19;103601.03;5092244;28;20109;-70
2021/12/18 04:17:59;;;;;;;46.60;18.67;;;;;;;7.61;85.78;103582.44;5075649;28;20105;-70
2021/12/18 04:20:26;;;;;;;45.80;18.27;;;;;;;7.57;86.49;103594.91;5059365;28;20078;-68
2021/12/18 04:22:54;;;;;;;41.50;17.00;;;;;;;7.63;86.37;103585.88;5092078;28;20719;-70
2021/12/18 04:25:21;;;;;;;46.40;18.02;;;;;;;7.56;86.21;103598.47;5075700;28;20062;-69
2021/12/18 04:27:48;;;;;;;39.72;16.92;;;;;;;7.61;86.62;103601.78;5095930;28;20259;-69
2021/12/18 04:30:15;;;;;;;46.72;18.33;;;;;;;7.61;86.57;103599.13;5078455;28;20054;-68
2021/12/18 04:32:42;;;;;;;46.90;18.05;;;;;;;7.60;86.15;103601.84;5092290;28;20055;-68
2021/12/18 04:35:08;;;;;;;45.65;18.65;;;;;;;7.64;86.40;103596.38;5090279;28;20118;-68
2021/12/18 04:37:35;;;;;;;46.83;17.98;;;;;;;7.59;86.17;103594.84;5092811;28;20036;-68
2021/12/18 04:40:03;;;;;;;51.05;20.05;;;;;;;7.55;86.67;103590.59;5092761;28;20056;-68
2021/12/18 04:42:29;;;;;;;43.22;17.85;;;;;;;7.59;86.90;103602.78;5092877;28;20043;-68
2021/12/18 04:44:56;;;;;;;49.95;18.52;;;;;;;7.62;86.81;103602.63;5093085;28;20041;-68
2021/12/18 04:47:23;;;;;;;53.53;18.85;;;;;;;7.71;86.59;103593.44;5091914;28;20504;-68
2021/12/18 04:49:50;;;;;;;54.30;18.92;;;;;;;7.68;86.38;103597.94;5092042;28;20044;-70
2021/12/18 04:52:16;;;;;;;50.03;19.27;;;;;;;7.71;86.46;103599.59;5092574;28;20086;-68
2021/12/18 04:54:44;;;;;;;55.17;19.52;;;;;;;7.60;86.41;103599.19;5075093;28;20075;-70
2021/12/18 04:57:11;;;;;;;49.03;19.80;;;;;;;7.65;86.16;103607.78;5083917;28;20044;-69
2021/12/18 04:59:43;;;;;;;55.40;21.00;;;;;;;7.65;87.06;103607.78;5093205;28;20070;-68
2021/12/18 05:02:11;;;;;;;;;;;;;;;7.66;86.61;103599.81;5056466;28;20037;-68
2021/12/18 05:04:38;;;;;;;49.22;20.02;;;;;;;7.70;86.69;103611.09;5071255;28;19925;-68
2021/12/18 05:07:04;;;;;;;55.78;21.30;;;;;;;7.75;86.45;103613.53;5091033;28;20078;-70
2021/12/18 05:09:31;;;;;;;54.00;21.40;;;;;;;7.78;86.79;103613.41;5092652;28;20048;-69
2021/12/18 05:11:58;;;;;;;57.83;21.92;;;;;;;7.78;86.54;103616.91;5092423;28;20497;-68
2021/12/18 05:14:24;;;;;;;52.63;20.27;;;;;;;7.77;86.57;103624.91;5057149;28;20587;-69
2021/12/18 05:16:51;;;;;;;57.92;21.13;;;;;;;7.81;86.30;103611.50;5092425;28;20040;-69
2021/12/18 05:19:19;;;;;;;52.30;20.80;;;;;;;7.79;86.26;103605.41;5092267;28;20097;-69
2021/12/18 05:21:45;;;;;;;52.13;20.25;;;;;;;7.84;86.22;103613.13;5091220;28;20098;-69
2021/12/18 05:24:13;;;;;;;47.85;18.33;;;;;;;7.84;86.32;103603.44;5074504;28;20401;-68
2021/12/18 05:26:40;;;;;;;52.55;18.38;;;;;;;7.77;86.35;103602.00;5090707;28;20488;-69
2021/12/18 05:29:07;;;;;;;45.97;18.55;;;;;;;7.67;86.62;103593.56;5091348;28;20105;-69
2021/12/18 05:31:34;;;;;;;44.88;18.13;;;;;;;7.58;86.66;103601.88;5090593;28;20439;-70
2021/12/18 05:34:03;;;;;;;46.08;19.38;;;;;;;7.42;87.33;103604.34;5091170;28;20044;-68
2021/12/18 05:36:35;;;;;;;49.70;18.77;;;;;;;7.53;87.65;103597.72;5089146;28;20082;-68
2021/12/18 05:39:06;;;;;;;46.42;18.33;;;;;;;7.52;87.44;103602.16;5091143;28;20471;-68
2021/12/18 05:41:33;;;;;;;43.97;18.92;;;;;;;7.50;87.87;103604.88;5073914;28;20071;-70
2021/12/18 05:44:00;;;;;;;47.08;18.63;;;;;;;7.56;87.34;103616.09;5091852;28;20451;-69
2021/12/18 05:46:27;;;;;;;46.85;18.80;;;;;;;7.53;87.47;103600.38;5091503;28;20067;-69
2021/12/18 05:48:54;;;;;;;48.47;18.73;;;;;;;7.57;87.58;103604.63;5091842;28;20113;-69
2021/12/18 05:51:21;;;;;;;43.97;18.48;;;;;;;7.59;87.58;103611.56;5091743;28;20044;-69
2021/12/18 05:53:48;;;;;;;49.35;19.83;;;;;;;7.60;87.51;103607.97;5090439;28;20078;-69
2021/12/18 05:56:15;;;;;;;55.30;20.77;;;;;;;7.63;87.39;103607.84;5091743;28;20036;-69
2021/12/18 05:58:43;;;;;;;50.83;19.48;;;;;;;7.66;87.56;103610.38;5090586;28;20396;-69
2021/12/18 06:01:12;;;;;;;46.38;19.50;;;;;;;7.53;87.83;103611.81;5090637;28;20134;-69
2021/12/18 06:03:40;;;;;;;49.15;19.98;;;;;;;7.46;88.09;103613.00;5073575;28;20493;-70
2021/12/18 06:06:07;;;;;;;45.38;18.75;;;;;;;7.57;87.80;103616.03;5090630;28;20040;-69
2021/12/18 06:08:35;;;;;;;50.30;18.63;;;;;;;7.53;88.28;103611.81;5089570;28;20040;-69
2021/12/18 06:11:08;;;;;;;49.35;19.42;;;;;;;7.45;88.42;103616.53;5090557;28;20040;-68
2021/12/18 06:13:35;;;;;;;48.72;16.70;;;;;;;7.44;88.53;103628.03;5091088;28;20044;-69
2021/12/18 06:16:05;;;;;;;46.13;18.85;;;;;;;7.36;88.97;103620.41;5091079;28;20047;-69
2021/12/18 06:18:34;;;;;;;49.67;18.55;;;;;;;7.44;88.74;103617.44;5091807;28;20101;-67
2021/12/18 06:21:01;;;;;;;45.78;17.05;;;;;;;7.53;89.04;103626.78;5090232;28;20466;-68
2021/12/18 06:23:28;;;;;;;43.33;16.48;;;;;;;7.46;88.88;103624.41;5090295;28;20036;-69
2021/12/18 06:25:57;;;;;;;41.08;16.20;;;;;;;7.38;88.69;103629.13;5091543;28;20407;-68
2021/12/18 06:28:24;;;;;;;44.55;17.13;;;;;;;7.33;89.09;103622.31;5090335;28;20043;-68
2021/12/18 06:30:51;;;;;;;43.88;16.58;;;;;;;7.35;89.07;103626.63;5089915;28;20569;-69
2021/12/18 06:33:19;;;;;;;39.50;13.98;;;;;;;7.28;88.04;103622.53;5088336;28;20054;-68
2021/12/18 06:35:45;;;;;;;36.00;14.52;;;;;;;7.23;88.66;103614.78;5091345;28;20032;-69
2021/12/18 06:38:12;;;;;;;30.13;12.27;;;;;;;7.25;88.35;103615.56;5091772;28;20040;-69
2021/12/18 06:40:39;;;;;;;31.30;13.05;;;;;;;7.35;88.81;103621.34;5095668;28;20051;-69
2021/12/18 06:43:06;;;;;;;30.70;11.80;;;;;;;7.37;88.73;103622.16;5093204;28;20093;-70
2021/12/18 06:45:33;;;;;;;29.52;11.68;;;;;;;7.38;87.97;103625.63;5091316;28;20040;-69
2021/12/18 06:48:00;;;;;;;28.27;12.35;;;;;;;7.46;87.57;103623.56;5091345;28;20048;-69
2021/12/18 06:50:27;;;;;;;33.45;13.50;;;;;;;7.52;87.90;103619.81;5073569;28;20431;-69
2021/12/18 06:52:54;;;;;;;28.10;11.98;;;;;;;7.52;87.92;103618.00;5091111;28;20048;-69
2021/12/18 06:55:21;;;;;;;27.48;11.35;;;;;;;7.57;87.14;103616.03;5089765;28;20093;-69
2021/12/18 06:57:48;;;;;;;30.38;11.30;;;;;;;7.55;87.09;103614.38;5073274;28;20063;-69
2021/12/18 07:00:16;;;;;;;26.60;11.38;;;;;;;7.65;87.12;103618.34;5073403;28;20047;-70
2021/12/18 07:02:43;;;;;;;25.52;10.02;;;;;;;7.58;87.00;103619.53;5067177;28;20047;-70
2021/12/18 07:05:10;;;;;;;25.58;10.52;;;;;;;7.58;87.01;103612.47;5077574;28;20435;-68
2021/12/18 07:07:38;;;;;;;26.30;10.80;;;;;;;7.57;86.73;103615.19;5092719;28;20048;-70
2021/12/18 07:10:07;;;;;;;24.23;10.00;;;;;;;7.62;87.03;103621.13;5077724;28;20048;-69
2021/12/18 07:12:34;;;;;;;23.95;9.85;;;;;;;7.66;87.21;103622.72;5092842;28;20040;-70
2021/12/18 07:15:03;;;;;;;26.05;10.30;;;;;;;7.65;86.85;103618.34;5095415;28;20055;-68
2021/12/18 07:17:30;;;;;;;29.58;10.55;;;;;;;7.61;86.92;103627.34;5086272;28;20091;-69
2021/12/18 07:19:57;;;;;;;24.73;9.15;;;;;;;7.57;86.19;103616.03;5095584;28;20040;-69
2021/12/18 07:22:24;;;;;;;26.05;9.93;;;;;;;7.62;86.86;103614.06;5094953;28;20040;-69
2021/12/18 07:24:51;;;;;;;27.95;10.38;;;;;;;7.60;86.71;103615.88;5061080;28;20047;-68
2021/12/18 07:27:18;;;;;;;25.98;10.05;;;;;;;7.64;86.31;103614.88;5094666;28;20040;-68
2021/12/18 07:29:45;;;;;;;27.15;10.43;;;;;;;7.57;86.41;103616.03;5093178;28;20390;-69
2021/12/18 07:32:12;;;;;;;32.05;10.70;;;;;;;7.58;86.79;103617.75;5095011;28;20036;-69
2021/12/18 07:34:50;;;;;;;30.02;10.52;;;;;;;7.62;85.97;103618.47;5091795;28;20062;-69
2021/12/18 07:37:17;;;;;;;27.73;10.30;;;;;;;7.63;86.27;103617.56;5093548;28;20039;-69
2021/12/18 07:39:44;;;;;;;30.20;10.43;;;;;;;7.62;86.69;103623.75;5095013;28;20047;-70
2021/12/18 07:42:10;;;;;;;27.48;10.90;;;;;;;7.60;86.80;103615.88;5093787;28;20461;-70
2021/12/18 07:44:40;;;;;;;35.58;12.68;;;;;;;7.65;86.77;103623.63;5060070;28;20416;-68
2021/12/18 07:47:07;;;;;;;28.85;10.98;;;;;;;7.64;87.29;103617.50;5093667;28;20400;-69
2021/12/18 07:49:36;;;;;;;36.60;12.52;;;;;;;7.84;86.22;103616.66;5093549;28;20044;-69
2021/12/18 07:52:04;;;;;;;42.20;15.05;;;;;;;7.81;85.82;103621.22;5095088;28;20081;-69
2021/12/18 07:54:31;;;;;;;45.05;17.90;;;;;;;7.72;86.96;103614.53;5094601;28;20123;-69
2021/12/18 07:56:57;;;;;;;51.50;19.60;;;;;;;7.60;87.33;103618.53;5093159;28;20481;-70
2021/12/18 07:59:24;;;;;;;50.38;20.23;;;;;;;7.52;87.81;103610.09;5093623;28;20048;-69
2021/12/18 08:01:51;;;;;;;66.20;21.05;;;;;;;7.54;86.58;103613.53;5094562;28;20044;-70
2021/12/18 08:04:18;;;;;;;60.05;22.27;;;;;;;7.43;87.49;103616.59;5094469;28;20040;-69
2021/12/18 08:06:44;;;;;;;59.85;22.45;;;;;;;7.38;88.28;103612.44;5093013;28;20058;-69
2021/12/18 08:09:11;;;;;;;54.50;22.90;;;;;;;7.30;88.04;103618.88;5093258;28;20409;-69
2021/12/18 08:11:38;;;;;;;59.67;23.38;;;;;;;7.33;88.14;103615.28;5094442;28;20043;-69
2021/12/18 08:14:05;;;;;;;60.28;23.95;;;;;;;7.34;87.96;103611.69;5093214;28;20122;-70
2021/12/18 08:16:31;;;;;;;59.00;24.60;;;;;;;7.35;88.28;103609.91;5093384;28;20090;-69
2021/12/18 08:18:58;;;;;;;64.97;24.65;;;;;;;7.40;88.28;103614.06;5094386;28;20050;-69
2021/12/18 08:21:25;;;;;;;62.97;24.48;;;;;;;7.40;87.66;103607.94;5093027;28;20063;-69
2021/12/18 08:23:51;;;;;;;64.03;24.00;;;;;;;7.36;88.14;103616.94;5094376;28;20039;-69
2021/12/18 08:26:18;;;;;;;63.50;24.38;;;;;;;7.37;87.78;103622.16;5093156;28;20044;-69
2021/12/18 08:28:46;;;;;;;66.18;25.88;;;;;;;7.38;87.63;103620.34;5094331;28;20048;-70
2021/12/18 08:31:12;;;;;;;66.22;25.45;;;;;;;7.32;87.82;103616.19;5092397;28;20109;-69
2021/12/18 08:33:39;;;;;;;68.32;25.40;;;;;;;7.26;88.86;103613.81;5094083;28;20111;-70
2021/12/18 08:36:06;;;;;;;58.42;24.33;;;;;;;7.29;87.81;103618.94;5093306;28;20048;-69
2021/12/18 08:38:33;;;;;;;64.32;26.23;;;;;;;7.32;88.67;103615.34;5091954;28;20040;-68
2021/12/18 08:40:59;;;;;;;63.58;25.00;;;;;;;7.33;88.56;103617.03;5076134;28;20217;-71
2021/12/18 08:43:26;;;;;;;70.40;26.13;;;;;;;7.21;89.10;103613.13;5092578;28;20822;-70
2021/12/18 08:45:53;;;;;;;68.40;25.30;;;;;;;7.38;88.33;103612.44;5093585;28;20105;-68
2021/12/18 08:48:21;;;;;;;79.53;27.38;;;;;;;7.28;88.39;103611.97;5092534;28;20051;-68
2021/12/18 08:50:48;;;;;;;73.25;26.25;;;;;;;7.26;88.88;103613.81;5092118;28;20055;-69
2021/12/18 08:53:15;;;;;;;74.18;27.33;;;;;;;7.21;88.77;103615.78;5091974;28;20139;-69
2021/12/18 08:55:42;;;;;;;79.13;28.95;;;;;;;7.22;89.20;103610.44;5069309;28;20451;-69
2021/12/18 08:58:10;;;;;;;77.72;29.45;;;;;;;7.22;89.05;103607.78;5097239;28;20039;-69
2021/12/18 09:00:37;;;;;;;74.38;28.58;;;;;;;7.20;88.50;103609.59;5095843;28;20043;-69
2021/12/18 09:03:04;;;;;;;74.97;27.38;;;;;;;7.20;89.20;103612.25;5076135;28;20078;-68
2021/12/18 09:05:31;;;;;;;81.82;29.08;;;;;;;7.27;88.75;103615.50;5088779;28;20037;-69
2021/12/18 09:07:58;;;;;;;78.85;28.20;;;;;;;7.29;88.52;103616.31;5086510;28;20047;-69
2021/12/18 09:10:25;;;;;;;82.45;28.10;;;;;;;7.25;87.96;103612.06;5067897;28;20075;-69
2021/12/18 09:12:53;;;;;;;78.35;28.40;;;;;;;7.26;88.71;103617.31;5072202;28;20063;-69
2021/12/18 09:15:21;;;;;;;81.57;27.25;;;;;;;7.31;88.65;103617.09;5081456;28;20060;-68
2021/12/18 09:17:49;;;;;;;81.78;27.60;;;;;;;7.25;88.66;103618.22;5089037;28;20044;-69
2021/12/18 09:20:16;;;;;;;90.68;29.35;;;;;;;7.53;88.47;103617.09;5092063;28;20565;-69
2021/12/18 09:22:43;;;;;;;93.03;29.17;;;;;;;7.34;88.59;103622.25;5093144;28;20036;-69
2021/12/18 09:25:10;;;;;;;92.68;29.92;;;;;;;7.25;88.85;103620.84;5092348;28;20059;-69
2021/12/18 09:27:38;;;;;;;86.90;28.90;;;;;;;7.19;89.87;103614.97;5075088;28;20062;-69
2021/12/18 09:30:09;;;;;;;88.28;29.48;;;;;;;7.19;88.94;103622.91;5090275;28;20093;-69
2021/12/18 09:32:37;;;;;;;92.25;29.88;;;;;;;7.15;89.62;103624.81;5086705;28;20066;-69
2021/12/18 09:35:05;;;;;;;92.35;29.35;;;;;;;7.17;89.52;103630.88;5087534;28;20489;-69
2021/12/18 09:37:32;;;;;;;91.25;30.30;;;;;;;7.17;89.73;103619.44;5091655;28;20067;-69
2021/12/18 09:39:58;;;;;;;91.43;29.98;;;;;;;7.16;89.85;103623.88;5092303;28;20105;-69
2021/12/18 09:42:25;;;;;;;101.53;30.63;;;;;;;7.17;89.92;103628.22;5084555;28;20127;-69
2021/12/18 09:44:52;;;;;;;98.63;30.77;;;;;;;7.18;89.17;103624.66;5092837;28;20044;-70
2021/12/18 09:47:20;;;;;;;101.03;29.92;;;;;;;7.17;89.31;103627.34;5091994;28;20036;-69
2021/12/18 09:49:48;;;;;;;96.30;30.98;;;;;;;7.14;88.45;103620.44;5086659;28;20058;-70
2021/12/18 09:52:15;;;;;;;92.32;30.98;;;;;;;7.22;88.35;103615.72;5090223;28;20119;-68
2021/12/18 09:54:42;;;;;;;106.00;31.35;;;;;;;7.15;88.77;103619.53;5081600;28;20053;-71
2021/12/18 09:57:10;;;;;;;96.70;30.65;;;;;;;7.14;88.85;103611.66;5089334;28;20051;-70
2021/12/18 09:59:37;;;;;;;94.45;29.38;;;;;;;7.19;88.79;103609.69;5084828;28;20551;-69
2021/12/18 10:02:04;;;;;;;96.55;32.17;;;;;;;7.17;88.45;103611.50;5089662;28;20044;-70
2021/12/18 10:04:33;;;;;;;93.65;30.75;;;;;;;7.09;89.00;103609.19;5091311;28;20101;-69
2021/12/18 10:07:14;;;;;;;101.07;30.85;;;;;;;7.17;88.57;103614.16;5080571;28;20059;-69
2021/12/18 10:09:41;;;;;;;91.00;29.67;;;;;;;7.02;88.66;103613.00;5090820;28;20044;-69
2021/12/18 10:12:29;;;;;;;95.40;30.55;;;;;;;7.06;88.99;103606.69;5088450;28;20496;-70
2021/12/18 10:15:00;;;;;;;95.85;29.75;;;;;;;7.07;89.49;103609.25;5090085;28;20181;-70
2021/12/18 10:17:36;;;;;;;99.47;29.65;;;;;;;7.11;89.85;103607.34;5089729;28;20040;-70
2021/12/18 10:22:54;;;;;;;79.03;28.40;;;;;;;7.11;89.26;103600.31;5109988;27;20391;-70
2021/12/18 10:25:24;;;;;;;82.73;27.77;;;;;;;7.18;89.50;103597.41;5108012;28;20062;-70
2021/12/18 10:28:07;;;;;;;80.60;25.73;;;;;;;7.18;89.45;103594.75;5108804;28;20058;-69
2021/12/18 10:30:41;;;;;;;77.78;27.45;;;;;;;7.09;89.53;103588.06;5105314;28;20143;-68
2021/12/18 10:33:12;;;;;;;85.80;27.73;;;;;;;7.20;89.17;103583.22;5096288;28;20055;-66
2021/12/18 10:38:48;;;;;;;72.72;27.02;;;;;;;7.39;88.52;103587.75;5118617;27;20378;-65
2021/12/18 10:41:34;;;;;;;88.97;26.85;;;;;;;7.46;87.22;103590.06;5103580;28;20068;-65
2021/12/18 10:44:07;;;;;;;79.68;26.20;;;;;;;7.48;86.86;103588.22;5117535;28;20048;-65
2021/12/18 10:46:37;;;;;;;81.05;27.00;;;;;;;7.15;87.70;103579.03;5105299;28;20509;-70
2021/12/18 10:49:06;;;;;;;78.20;26.35;;;;;;;7.31;86.97;103580.13;5085185;28;20044;-71
2021/12/18 10:51:36;;;;;;;82.03;26.92;;;;;;;7.19;87.46;103567.44;5093457;28;20496;-70
2021/12/18 10:54:08;;;;;;;84.03;27.90;;;;;;;7.16;87.45;103573.69;5095356;28;20118;-68
2021/12/18 10:56:38;;;;;;;75.60;27.23;;;;;;;7.22;87.21;103575.22;5095049;28;20488;-68
2021/12/18 10:59:19;;;;;;;79.20;26.73;;;;;;;6.98;88.66;103572.66;5118634;28;20148;-69
2021/12/18 11:01:56;;;;;;;81.85;27.50;;;;;;;7.06;88.01;103569.72;5115229;28;20534;-70
2021/12/18 11:04:26;;;;;;;81.30;27.15;;;;;;;7.05;88.21;103568.00;5108932;28;20075;-70
2021/12/18 11:06:55;;;;;;;79.43;27.48;;;;;;;7.03;88.36;103578.63;5068768;28;20044;-69
2021/12/18 11:09:31;;;;;;;87.88;28.35;;;;;;;7.10;88.39;103566.91;5088466;28;20120;-69
2021/12/18 11:14:47;;;;;;;84.65;26.70;;;;;;;6.97;89.65;103551.59;5107069;28;20054;-69
2021/12/18 11:17:16;;;;;;;80.85;27.10;;;;;;;7.12;88.43;103558.91;5090642;28;20039;-68
2021/12/18 11:19:43;;;;;;;88.10;27.00;;;;;;;7.05;88.49;103555.66;5109834;28;20127;-68
2021/12/18 11:22:14;;;;;;;80.75;27.70;;;;;;;6.99;89.01;103555.06;5094316;28;20048;-69
2021/12/18 11:24:45;;;;;;;79.93;27.05;;;;;;;7.02;89.76;103549.63;5089851;28;20505;-69
2021/12/18 11:27:17;;;;;;;82.93;27.17;;;;;;;6.95;89.65;103541.13;5097371;28;20032;-69
2021/12/18 11:30:03;;;;;;;81.60;26.77;;;;;;;7.06;89.18;103546.81;5090318;28;20040;-69
2021/12/18 11:32:34;;;;;;;72.88;24.08;;;;;;;7.29;88.05;103545.00;5117485;28;20507;-70
2021/12/18 11:35:06;;;;;;;74.45;24.60;;;;;;;7.20;87.94;103540.13;5105732;28;20044;-69
2021/12/18 11:37:40;;;;;;;74.15;25.75;;;;;;;7.14;88.30;103535.94;5105785;28;20054;-70
2021/12/18 11:40:10;;;;;;;72.18;24.95;;;;;;;7.18;88.52;103529.59;5090050;28;20123;-70
2021/12/18 11:42:37;;;;;;;71.30;23.10;;;;;;;7.32;87.48;103530.84;5091644;28;20052;-71
2021/12/18 11:45:07;;;;;;;72.35;23.70;;;;;;;7.20;88.39;103526.91;5108033;28;20055;-70
2021/12/18 11:47:39;;;;;;;64.47;23.65;;;;;;;7.18;89.27;103528.75;5107237;28;20036;-68
2021/12/18 11:53:08;;;;;;;76.15;24.58;;;;;;;7.22;88.78;103520.66;5090103;28;20125;-70
2021/12/18 11:58:35;;;;;;;75.22;24.75;;;;;;;7.23;89.15;103521.50;5130982;27;20375;-69
2021/12/18 12:01:21;;;;;;;72.68;23.58;;;;;;;7.25;88.54;103509.94;5125994;28;20157;-71
2021/12/18 12:06:34;;;;;;;75.22;24.55;;;;;;;7.31;89.06;103514.09;5109155;27;20125;-70
2021/12/18 12:09:25;;;;;;;69.60;22.90;;;;;;;7.35;88.91;103515.72;5075482;28;20056;-70
2021/12/18 12:14:41;;;;;;;69.25;23.73;;;;;;;7.29;88.89;103500.13;5079121;28;20418;-70
2021/12/18 12:17:27;;;;;;;72.95;25.58;;;;;;;7.15;90.08;103506.00;5054897;28;20052;-72
2021/12/18 12:20:05;;;;;;;75.47;23.92;;;;;;;7.12;90.51;103511.41;5072785;28;20063;-72
2021/12/18 12:22:37;;;;;;;62.95;21.63;;;;;;;7.27;88.96;103505.47;5042746;28;20171;-70
2021/12/18 12:25:08;;;;;;;70.72;23.52;;;;;;;7.37;88.54;103510.34;5070731;28;20059;-72